首页
METAR-TAF:

METAR-TAF

机场 :

基隆拿國際機場

基隆拿, 不列颠哥伦比亚, 加拿大

纬度: 49-58N, 经度: 119-23W, 海拔: 430米

当前天气观测

该预报发布于44分钟前的02:00 UTC
静风
温度 -1°C
湿度 93%
气压 1011 hPa
能見度: 14.5公里
散云层高于2400英尺
阴天层高于5000英尺

METAR: CYLW 170200Z AUTO 00000KT 9SM SCT024 OVC050 M01/M02 A2984 RMK SLP125

时间: 18:44 (02:44 UTC)

预报

该预报发布于2小时和6分钟前的00:38 UTC
预报有效从17日的 01点(UTC)到 17日的 13点(UTC)
风速3节,风向多变
能見度: 10公里
散云层高于2000英尺
阴天层高于6000英尺
短暂存在
从 17日的 01点(UTC)到 17日的 07点(UTC)
能見度: 10公里
阴天层高于2000英尺
小阵雪
从 17日的 0700点(UTC)
风速5节,风向
能見度: 10公里
阴天层高于2000英尺
短暂存在
从 17日的 07点(UTC)到 17日的 13点(UTC)
能見度: 3.2公里
小雪

TAF: CYLW 170038Z 1701/1713 VRB03KT P6SM SCT020 OVC060 TEMPO 1701/1707 P6SM -SHSN OVC020 FM170700 36005KT P6SM OVC020 TEMPO 1707/1713 2SM -SN RMK FCST BASED ON AUTO OBS. NXT FCST BY 170700Z

超过4000个机场的气象观测和天气预报(METAR&TAF报告)。

可查询的气象台以黄色和红色小点在地图上表示。

将鼠标移到小点上方,可查看气象台名称。

然后点击查看天气观测和预报。

如需切换地图:点击带黑十字的绿色按钮放大地图;点击带横线的绿色按钮缩小地图;或者点击绿色箭头查看邻近地区的地图。


METAR-TAF: